OOMS/MCT METAR and TAF weather

Enter ICAO airport designator
Station Type Date Time Source
OOMS METAR 2020/01/19 22:50 UTC NOAA

OOMS 192250Z VRB02KT CAVOK 16/14 Q1016 NOSIG


Station Type Date Time Source
OOMS Decoded METAR 2020/01/19 22:50 UTC NOAA

Seeb, International Airport, Oman (OOMS) 23-35N 058-17E 17M
Jan 19, 2020 - 05:50 PM EST / 2020.01.19 2250 UTC
Wind: Variable at 2 MPH (2 KT):0
Visibility: greater than 7 mile(s):0
Temperature: 60 F (16 C)
Dew Point: 57 F (14 C)
Relative Humidity: 87%
Pressure (altimeter): 30.00 in. Hg (1016 hPa)
ob: OOMS 192250Z VRB02KT CAVOK 16/14 Q1016 NOSIG
cycle: 23

Station Type Date Time Source
OOMS TAF 2020/01/19 18:06 UTC NOAA

TAF TAF OOMS 191700Z 1918/2024 24005KT 8000 NSC
BECMG 2006/2008 03010KT
BECMG 2015/2017 24005KT

Example: see airport list